Time;durP1;ratioP1;P1;durP2;ratioP2;P2;SDS_P1;SDS_P2;PMS_P1;PMS_P2;Temp;Humidity;BMP_temperature;BMP_pressure;BME280_temperature;BME280_humidity;BME280_pressure;Samples;Min_cycle;Max_cycle;Signal;HPM_P1;HPM_P2
2023/03/31 00:00:56;;;;;;;0.38;0.35;;;;;;;15.21;47.81;101506.81;4994472;28;20022;-40
2023/03/31 00:03:23;;;;;;;1.80;0.70;;;;;;;15.46;47.85;101503.28;4994412;28;20088;-40
2023/03/31 00:05:57;;;;;;;2.05;0.63;;;;;;;15.19;48.72;101521.56;4994194;28;20045;-40
2023/03/31 00:08:28;;;;;;;3.00;0.70;;;;;;;14.87;49.49;101518.06;4994046;28;20034;-40
2023/03/31 00:10:59;;;;;;;3.35;0.50;;;;;;;14.41;51.37;101519.13;4993839;28;20081;-39
2023/03/31 00:13:26;;;;;;;1.75;0.57;;;;;;;14.34;52.25;101519.16;4993672;28;20034;-39
2023/03/31 00:16:01;;;;;;;3.90;0.82;;;;;;;14.67;50.38;101508.25;4994125;28;20134;-39
2023/03/31 00:18:28;;;;;;;4.70;0.80;;;;;;;14.55;51.14;101515.38;4993901;28;20035;-40
2023/03/31 00:21:04;;;;;;;3.50;0.70;;;;;;;14.46;51.05;101512.06;4993925;28;20034;-39
2023/03/31 00:23:30;;;;;;;2.33;0.90;;;;;;;14.35;52.00;101511.91;4994249;28;20106;-46
2023/03/31 00:25:57;;;;;;;1.75;0.63;;;;;;;14.32;49.62;101515.84;4994259;28;20105;-47
2023/03/31 00:28:23;;;;;;;1.52;0.55;;;;;;;14.15;50.14;101515.50;4999069;28;20041;-47
2023/03/31 00:30:50;;;;;;;3.05;0.63;;;;;;;14.00;51.27;101521.16;4992830;28;20105;-47
2023/03/31 00:33:16;;;;;;;1.40;0.52;;;;;;;14.02;52.99;101529.00;4997957;28;20085;-46
2023/03/31 00:35:44;;;;;;;4.07;1.00;;;;;;;14.11;51.96;101525.06;4993909;28;20104;-46
2023/03/31 00:38:12;;;;;;;3.83;1.02;;;;;;;14.08;52.38;101532.72;4998539;28;20468;-46
2023/03/31 00:40:45;;;;;;;5.50;1.40;;;;;;;14.03;52.93;101532.53;4993667;28;20030;-46
2023/03/31 00:43:31;;;;;;;2.83;1.00;;;;;;;13.94;51.82;101538.16;4992162;28;20113;-47
2023/03/31 00:46:30;;;;;;;4.57;1.05;;;;;;;13.80;53.27;101536.53;4999382;28;20070;-46
2023/03/31 00:48:57;;;;;;;5.55;1.05;;;;;;;13.90;52.58;101531.53;5012410;28;20034;-47
2023/03/31 00:51:27;;;;;;;4.32;1.00;;;;;;;13.88;54.63;101533.63;5007350;28;20121;-47
2023/03/31 00:53:58;;;;;;;1.83;0.80;;;;;;;13.84;53.40;101543.16;5012483;28;20087;-47
2023/03/31 00:56:27;;;;;;;6.05;1.13;;;;;;;13.81;53.72;101538.16;4998701;28;20030;-46
2023/03/31 00:58:56;;;;;;;4.82;0.88;;;;;;;13.89;53.86;101545.22;4992651;28;20026;-47
2023/03/31 01:01:23;;;;;;;3.83;1.00;;;;;;;13.73;53.35;101544.63;4993039;28;20049;-45
2023/03/31 01:03:51;;;;;;;4.93;1.13;;;;;;;13.81;52.81;101550.81;4992423;28;20035;-45
2023/03/31 01:06:22;;;;;;;2.88;1.17;;;;;;;13.80;53.10;101547.28;4993396;28;20052;-45
2023/03/31 01:08:50;;;;;;;6.53;1.23;;;;;;;13.72;50.73;101547.53;4999137;28;20038;-45
2023/03/31 01:11:22;;;;;;;5.90;1.13;;;;;;;13.63;51.87;101554.16;4997159;28;20043;-46
2023/03/31 01:13:54;;;;;;;4.38;0.90;;;;;;;13.57;52.63;101553.13;5013600;22;20057;-46
2023/03/31 01:16:22;;;;;;;7.65;1.17;;;;;;;13.55;53.55;101559.72;4992988;28;20097;-46
2023/03/31 01:18:49;;;;;;;3.83;1.10;;;;;;;13.55;52.47;101559.72;5001444;28;20029;-45
2023/03/31 01:21:46;;;;;;;3.47;1.10;;;;;;;13.70;51.75;101554.97;5012446;28;20030;-45
2023/03/31 01:24:48;;;;;;;4.63;1.13;;;;;;;13.61;51.53;101558.91;5009405;28;20045;-45
2023/03/31 01:27:40;;;;;;;8.35;1.70;;;;;;;13.42;52.80;101561.38;5003475;28;20053;-45
2023/03/31 01:30:27;;;;;;;8.05;1.30;;;;;;;13.32;51.10;101560.16;5010627;28;20048;-46
2023/03/31 01:33:08;;;;;;;2.58;0.85;;;;;;;13.18;51.20;101564.66;4998562;28;20072;-46
2023/03/31 01:35:40;;;;;;;3.90;1.02;;;;;;;13.02;51.68;101565.06;5001030;28;20038;-44
2023/03/31 01:38:33;;;;;;;2.50;0.90;;;;;;;12.98;52.54;101567.31;4992555;28;20431;-45
2023/03/31 01:41:25;;;;;;;6.15;1.50;;;;;;;13.05;52.46;101570.88;4999011;28;20101;-40
2023/03/31 01:44:03;;;;;;;3.17;1.10;;;;;;;12.92;53.00;101574.34;5011725;28;20517;-43
2023/03/31 01:46:45;;;;;;;5.47;1.80;;;;;;;13.00;51.89;101573.34;5011908;28;20030;-43
2023/03/31 01:49:14;;;;;;;3.92;1.20;;;;;;;12.94;52.76;101579.53;5011986;28;20040;-43
2023/03/31 01:52:03;;;;;;;4.05;1.38;;;;;;;12.90;53.25;101584.47;5002608;28;20037;-44
2023/03/31 01:54:38;;;;;;;5.22;1.20;;;;;;;12.97;53.47;101573.72;5000521;28;20393;-43
2023/03/31 01:57:12;;;;;;;2.30;1.13;;;;;;;12.82;54.71;101584.63;5008399;28;20497;-41
2023/03/31 02:00:04;;;;;;;10.52;1.77;;;;;;;12.76;55.39;101581.94;5007730;28;20037;-45
2023/03/31 02:02:54;;;;;;;2.10;1.17;;;;;;;12.68;56.79;101589.16;4985826;28;20050;-48
2023/03/31 02:05:24;;;;;;;5.93;1.30;;;;;;;12.57;56.61;101588.91;4992199;28;20061;-46
2023/03/31 02:08:29;;;;;;;6.28;1.30;;;;;;;12.39;57.67;101594.84;4991873;28;20597;-47
2023/03/31 02:10:57;;;;;;;4.15;1.20;;;;;;;12.45;57.10;101595.88;4997254;28;20056;-45
2023/03/31 02:13:28;;;;;;;6.50;1.52;;;;;;;12.23;57.08;101596.00;5011351;28;20121;-47
2023/03/31 02:16:00;;;;;;;3.92;1.23;;;;;;;12.24;57.36;101594.97;5012062;28;20076;-49
2023/03/31 02:18:31;;;;;;;3.35;1.05;;;;;;;12.09;57.75;101603.13;5011936;28;20022;-45
2023/03/31 02:21:00;;;;;;;6.03;1.67;;;;;;;11.94;58.43;101599.75;5010593;28;20076;-45
2023/03/31 02:23:30;;;;;;;4.13;1.58;;;;;;;11.99;58.46;101608.00;5011331;28;20076;-40
2023/03/31 02:26:12;;;;;;;4.15;1.20;;;;;;;12.15;58.40;101602.31;5011779;28;20022;-40
2023/03/31 02:28:39;;;;;;;4.28;1.38;;;;;;;12.13;57.93;101603.56;5011621;28;20028;-40
2023/03/31 02:31:27;;;;;;;5.00;1.40;;;;;;;12.06;57.08;101608.91;5011444;28;20030;-40
2023/03/31 02:33:54;;;;;;;6.18;1.38;;;;;;;11.95;57.35;101611.31;5011258;28;20030;-39
2023/03/31 02:36:20;;;;;;;4.55;1.67;;;;;;;11.96;57.03;101607.59;5014807;28;20021;-39
2023/03/31 02:39:11;;;;;;;6.55;1.35;;;;;;;11.86;57.40;101611.44;5016073;28;20038;-40
2023/03/31 02:41:37;;;;;;;5.50;1.33;;;;;;;11.85;57.91;101619.69;5014555;28;20446;-40
2023/03/31 02:44:03;;;;;;;4.30;1.30;;;;;;;11.94;57.68;101615.84;5000318;28;20030;-40
2023/03/31 02:46:31;;;;;;;3.20;1.17;;;;;;;12.05;58.15;101611.78;4995553;28;20538;-40
2023/03/31 02:49:00;;;;;;;7.53;1.00;;;;;;;11.92;57.32;101617.88;4995380;28;20511;-39
2023/03/31 02:52:00;;;;;;;6.15;1.58;;;;;;;11.87;56.59;101629.19;4995679;28;20054;-39
2023/03/31 02:54:39;;;;;;;7.47;1.52;;;;;;;11.84;57.35;101628.75;4995794;28;20568;-41
2023/03/31 02:57:47;;;;;;;11.27;1.65;;;;;;;11.81;56.88;101635.31;4995295;28;20038;-40
2023/03/31 03:00:17;;;;;;;4.80;1.50;;;;;;;11.66;56.99;101639.94;4975294;28;20049;-41
2023/03/31 03:03:11;;;;;;;3.92;1.52;;;;;;;11.61;57.26;101631.66;4995119;28;20088;-41
2023/03/31 03:06:01;;;;;;;8.82;1.83;;;;;;;11.59;56.76;101645.22;4995147;28;20030;-39
2023/03/31 03:08:54;;;;;;;4.50;1.65;;;;;;;11.59;57.19;101644.41;4996102;28;20034;-39
2023/03/31 03:11:31;;;;;;;3.72;1.58;;;;;;;11.50;57.55;101645.56;5015220;28;20111;-40
2023/03/31 03:14:12;;;;;;;3.72;1.33;;;;;;;11.58;57.65;101651.63;5026611;23;20049;-41
2023/03/31 03:16:47;;;;;;;5.13;1.50;;;;;;;11.51;57.07;101652.59;5014238;28;20065;-40
2023/03/31 03:19:22;;;;;;;4.60;1.60;;;;;;;11.37;57.22;101655.13;5014258;28;20026;-41
2023/03/31 03:21:49;;;;;;;9.07;1.88;;;;;;;11.43;56.46;101655.38;5014393;28;20427;-40
2023/03/31 03:24:16;;;;;;;5.72;1.67;;;;;;;11.35;56.73;101665.22;5014284;28;20434;-40
2023/03/31 03:26:44;;;;;;;2.53;1.48;;;;;;;11.17;57.68;101675.56;5013990;28;20442;-40
2023/03/31 03:29:14;;;;;;;7.80;1.40;;;;;;;11.13;57.77;101681.47;5007702;28;20034;-41
2023/03/31 03:31:41;;;;;;;7.28;1.88;;;;;;;11.04;58.60;101683.41;4999520;28;20084;-40
2023/03/31 03:34:11;;;;;;;3.90;1.45;;;;;;;11.03;58.12;101682.59;5004670;28;20018;-40
2023/03/31 03:36:38;;;;;;;9.85;1.92;;;;;;;11.00;58.48;101692.88;5008052;28;20026;-40
2023/03/31 03:39:06;;;;;;;3.83;1.58;;;;;;;11.02;58.15;101688.16;4997759;28;20058;-40
2023/03/31 03:41:33;;;;;;;3.13;1.60;;;;;;;11.03;58.52;101698.66;4994982;28;20036;-40
2023/03/31 03:44:00;;;;;;;6.47;1.75;;;;;;;10.92;58.83;101696.47;4994739;28;20081;-40
2023/03/31 03:46:26;;;;;;;5.05;1.65;;;;;;;10.81;59.38;101699.63;4994812;28;20030;-40
2023/03/31 03:48:53;;;;;;;5.20;1.65;;;;;;;10.83;59.29;101711.00;5004140;28;20036;-40
2023/03/31 03:51:19;;;;;;;4.78;1.88;;;;;;;10.82;59.77;101707.47;4997094;28;20517;-40
2023/03/31 03:53:45;;;;;;;6.95;1.80;;;;;;;10.82;60.04;101715.50;4994631;28;20026;-41
2023/03/31 03:56:12;;;;;;;6.65;1.80;;;;;;;10.81;60.18;101721.88;4994717;28;20030;-40
2023/03/31 03:58:38;;;;;;;5.35;1.88;;;;;;;10.87;59.74;101722.16;4994909;28;20507;-40
2023/03/31 04:01:04;;;;;;;7.85;1.70;;;;;;;10.84;59.62;101731.41;4994798;28;20467;-40
2023/03/31 04:03:31;;;;;;;6.22;1.48;;;;;;;10.73;59.90;101735.38;4994504;28;20058;-40
2023/03/31 04:05:57;;;;;;;8.73;1.55;;;;;;;10.70;60.40;101745.63;4994752;28;20023;-40
2023/03/31 04:08:23;;;;;;;6.03;1.73;;;;;;;10.81;59.96;101742.47;4994625;28;20041;-40
2023/03/31 04:10:50;;;;;;;6.25;1.65;;;;;;;10.76;59.84;101750.22;4994515;28;20136;-40
2023/03/31 04:13:18;;;;;;;6.40;1.73;;;;;;;10.68;60.50;101748.50;4992974;28;20050;-40
2023/03/31 04:15:44;;;;;;;7.40;1.73;;;;;;;10.62;60.47;101754.56;4993843;28;20135;-40
2023/03/31 04:18:21;;;;;;;4.80;1.88;;;;;;;10.63;60.39;101755.41;4993847;28;20177;-39
2023/03/31 04:21:02;;;;;;;7.68;1.90;;;;;;;10.54;60.69;101762.69;4993751;28;20080;-39
2023/03/31 04:23:33;;;;;;;5.97;1.40;;;;;;;10.46;61.31;101774.31;4993875;28;20495;-39
2023/03/31 04:26:01;;;;;;;10.77;1.80;;;;;;;10.51;61.64;101774.59;4996513;28;20491;-39
2023/03/31 04:28:33;;;;;;;10.25;2.13;;;;;;;10.48;61.97;101772.28;5013239;28;20038;-40
2023/03/31 04:31:01;;;;;;;8.00;1.95;;;;;;;10.32;62.59;101783.13;4999139;28;20049;-40
2023/03/31 04:33:28;;;;;;;6.90;1.90;;;;;;;10.38;62.71;101784.25;4993646;28;20029;-40
2023/03/31 04:35:54;;;;;;;9.77;1.88;;;;;;;10.27;63.26;101786.38;4997657;28;20210;-40
2023/03/31 04:38:23;;;;;;;7.82;1.58;;;;;;;10.27;63.07;101791.72;4995205;28;20105;-40
2023/03/31 04:40:51;;;;;;;5.65;1.77;;;;;;;10.16;63.81;101797.47;4996435;28;20048;-40
2023/03/31 04:43:19;;;;;;;5.38;1.80;;;;;;;10.19;63.70;101796.28;4993310;28;20030;-40
2023/03/31 04:45:46;;;;;;;9.68;1.85;;;;;;;10.04;64.15;101806.91;4996301;28;20045;-40
2023/03/31 04:48:12;;;;;;;5.43;1.77;;;;;;;10.16;64.08;101808.19;5012456;28;20182;-40
2023/03/31 04:50:39;;;;;;;10.30;2.22;;;;;;;10.38;63.00;101816.38;4999855;28;20121;-40
2023/03/31 04:53:05;;;;;;;5.72;1.60;;;;;;;10.14;63.83;101823.56;5011310;28;20101;-39
2023/03/31 04:55:32;;;;;;;7.20;2.20;;;;;;;10.10;63.93;101824.91;5012901;28;20113;-40
2023/03/31 04:57:59;;;;;;;9.45;2.03;;;;;;;10.13;63.88;101824.56;5012217;28;20026;-39
2023/03/31 05:00:25;;;;;;;8.40;1.98;;;;;;;10.17;63.28;101838.44;5012485;28;20042;-40
2023/03/31 05:02:52;;;;;;;6.95;1.80;;;;;;;10.17;63.13;101836.59;5012099;28;20482;-39
2023/03/31 05:05:18;;;;;;;10.88;2.28;;;;;;;9.78;64.53;101850.06;5012287;28;20030;-39
2023/03/31 05:07:45;;;;;;;9.20;2.45;;;;;;;9.90;63.91;101845.97;5012701;28;20021;-44
2023/03/31 05:10:11;;;;;;;8.73;2.10;;;;;;;9.88;63.63;101849.81;5012910;28;20353;-39
2023/03/31 05:12:38;;;;;;;7.90;2.20;;;;;;;9.74;64.02;101852.25;5012555;28;20103;-39
2023/03/31 05:15:05;;;;;;;9.48;1.77;;;;;;;9.77;63.93;101851.91;5004690;28;20037;-39
2023/03/31 05:17:33;;;;;;;7.78;2.10;;;;;;;9.69;64.42;101853.78;4993167;28;20120;-39
2023/03/31 05:20:00;;;;;;;14.85;2.13;;;;;;;9.79;64.05;101852.56;5005555;28;20034;-39
2023/03/31 05:22:26;;;;;;;9.70;2.47;;;;;;;9.75;64.16;101843.22;5012193;28;20190;-39
2023/03/31 05:24:53;;;;;;;5.25;1.80;;;;;;;9.78;63.95;101848.22;5011292;28;20515;-38
2023/03/31 05:27:20;;;;;;;4.38;1.63;;;;;;;9.73;64.40;101845.22;5012148;28;20065;-38
2023/03/31 05:29:47;;;;;;;3.92;2.10;;;;;;;9.73;64.38;101847.09;4999761;28;20105;-38
2023/03/31 05:32:13;;;;;;;5.00;2.05;;;;;;;9.74;64.34;101852.25;4992622;28;20037;-39
2023/03/31 05:34:42;;;;;;;6.07;2.28;;;;;;;9.85;64.26;101858.22;4992394;28;20030;-39
2023/03/31 05:37:08;;;;;;;6.05;1.98;;;;;;;9.69;64.94;101849.25;4992192;28;20030;-38
2023/03/31 05:39:35;;;;;;;8.05;1.85;;;;;;;9.65;64.74;101852.44;4994318;28;20036;-38
2023/03/31 05:42:02;;;;;;;5.82;1.52;;;;;;;9.69;64.71;101859.94;4992389;28;20030;-40
2023/03/31 05:44:28;;;;;;;7.30;1.95;;;;;;;9.60;64.95;101852.97;4993295;28;20121;-39
2023/03/31 05:46:54;;;;;;;5.45;2.00;;;;;;;9.59;64.70;101855.84;4991749;28;20031;-39
2023/03/31 05:49:21;;;;;;;8.02;2.30;;;;;;;9.42;65.73;101852.41;4992465;28;20026;-39
2023/03/31 05:51:47;;;;;;;5.00;1.80;;;;;;;9.48;65.57;101854.38;4991168;28;20491;-39
2023/03/31 05:54:13;;;;;;;4.57;2.05;;;;;;;9.48;65.24;101857.88;4992123;28;20026;-39
2023/03/31 05:56:39;;;;;;;7.68;2.50;;;;;;;9.50;65.22;101860.41;4990991;28;20034;-39
2023/03/31 05:59:06;;;;;;;6.22;2.35;;;;;;;8.98;67.49;101852.88;4992685;28;20546;-39
2023/03/31 06:01:32;;;;;;;7.43;2.35;;;;;;;9.08;66.76;101855.38;4991905;28;20531;-39
2023/03/31 06:03:58;;;;;;;5.07;1.95;;;;;;;9.08;66.45;101861.53;4993676;28;20031;-39
2023/03/31 06:06:25;;;;;;;8.50;2.40;;;;;;;9.03;66.86;101858.53;5006613;28;20462;-39
2023/03/31 06:08:51;;;;;;;12.00;5.70;;;;;;;8.25;69.97;101868.91;4992836;28;20490;-38
2023/03/31 06:11:20;;;;;;;14.90;4.93;;;;;;;8.31;69.84;101871.75;5018480;28;20029;-38
2023/03/31 06:13:47;;;;;;;8.48;3.83;;;;;;;8.14;70.67;101873.56;5017842;28;20038;-39
2023/03/31 06:16:14;;;;;;;8.95;2.72;;;;;;;8.27;70.03;101882.91;5006533;28;20088;-39
2023/03/31 06:18:41;;;;;;;7.57;2.65;;;;;;;8.25;69.88;101874.25;4998134;28;20128;-39
2023/03/31 06:21:16;;;;;;;8.75;2.47;;;;;;;8.07;70.86;101874.41;4997703;28;20093;-39
2023/03/31 06:23:43;;;;;;;5.20;2.63;;;;;;;7.93;71.71;101875.88;4998759;28;20038;-39
2023/03/31 06:26:15;;;;;;;5.78;2.70;;;;;;;7.88;71.81;101878.19;5003006;28;20037;-39
2023/03/31 06:28:42;;;;;;;6.28;2.53;;;;;;;7.92;72.08;101867.03;5004756;28;20108;-39
2023/03/31 06:31:11;;;;;;;10.65;2.60;;;;;;;7.97;71.28;101868.38;5014946;28;20549;-39
2023/03/31 06:33:40;;;;;;;9.80;3.20;;;;;;;7.92;71.81;101864.38;5000422;28;20037;-39
2023/03/31 06:36:07;;;;;;;9.38;2.50;;;;;;;8.00;71.88;101868.06;5018316;28;20030;-39
2023/03/31 06:38:35;;;;;;;10.70;2.80;;;;;;;8.00;72.29;101874.22;5018342;28;20026;-40
2023/03/31 06:41:01;;;;;;;7.55;2.45;;;;;;;7.73;73.05;101870.00;5017840;28;20021;-39
2023/03/31 06:43:28;;;;;;;10.02;2.92;;;;;;;7.30;75.19;101876.31;5013190;28;20404;-40
2023/03/31 06:45:55;;;;;;;8.30;2.78;;;;;;;7.39;75.01;101872.72;5017218;28;20409;-39
2023/03/31 06:48:25;;;;;;;5.93;2.20;;;;;;;7.64;74.00;101874.44;5018140;28;20033;-40
2023/03/31 06:50:58;;;;;;;8.82;2.33;;;;;;;7.56;74.19;101879.75;5017341;28;20116;-39
2023/03/31 06:53:24;;;;;;;8.05;2.28;;;;;;;7.51;74.50;101876.75;5018028;28;20022;-39
2023/03/31 06:55:50;;;;;;;7.70;2.35;;;;;;;7.46;74.56;101876.38;5017689;28;20433;-39
2023/03/31 06:58:17;;;;;;;9.63;2.90;;;;;;;7.35;74.88;101872.19;5012320;28;20179;-39
2023/03/31 07:00:45;;;;;;;9.68;2.95;;;;;;;6.55;78.81;101879.50;5015012;28;20512;-39
2023/03/31 07:03:12;;;;;;;7.53;2.50;;;;;;;6.93;77.44;101877.44;5017683;28;20037;-39
2023/03/31 07:05:38;;;;;;;7.60;2.38;;;;;;;7.17;76.11;101886.56;5001691;28;20085;-39
2023/03/31 07:08:05;;;;;;;10.05;2.63;;;;;;;7.15;76.45;101876.91;4997866;28;20114;-39
2023/03/31 07:10:32;;;;;;;5.53;2.28;;;;;;;7.33;75.58;101878.66;4998267;28;20057;-39
2023/03/31 07:12:58;;;;;;;4.88;2.08;;;;;;;7.36;75.54;101878.34;4997413;28;20046;-39
2023/03/31 07:15:27;;;;;;;4.95;2.17;;;;;;;7.40;75.04;101885.84;5006251;28;20053;-39
2023/03/31 07:18:00;;;;;;;6.22;2.70;;;;;;;7.20;76.07;101883.56;4998104;28;20490;-39
2023/03/31 07:20:28;;;;;;;7.55;2.22;;;;;;;6.86;78.65;101892.34;4996630;28;20101;-39
2023/03/31 07:22:54;;;;;;;5.90;2.05;;;;;;;7.12;77.25;101879.88;4998994;28;20065;-39
2023/03/31 07:25:20;;;;;;;9.02;2.80;;;;;;;7.33;76.10;101884.84;4994618;28;20023;-40
2023/03/31 07:27:47;;;;;;;6.53;2.50;;;;;;;7.11;76.78;101886.22;5010331;28;20095;-39
2023/03/31 07:30:17;;;;;;;9.02;2.50;;;;;;;7.11;76.72;101890.72;4994813;28;20018;-38
2023/03/31 07:32:46;;;;;;;7.88;2.42;;;;;;;7.10;76.49;101889.84;4996279;28;20287;-39
2023/03/31 07:35:13;;;;;;;10.75;2.60;;;;;;;6.67;78.98;101892.56;4994548;28;20030;-39
2023/03/31 07:37:42;;;;;;;9.57;2.40;;;;;;;6.86;77.90;101898.50;4998126;28;20061;-39
2023/03/31 07:40:11;;;;;;;9.13;2.88;;;;;;;6.91;77.44;101892.72;4994563;28;20432;-39
2023/03/31 07:42:37;;;;;;;7.85;2.85;;;;;;;7.02;77.01;101900.47;5006855;28;20046;-40
2023/03/31 07:45:08;;;;;;;5.32;2.25;;;;;;;7.07;76.83;101900.81;4995194;28;20037;-37
2023/03/31 07:47:35;;;;;;;5.55;1.98;;;;;;;7.10;76.79;101892.50;5005454;28;20469;-38
2023/03/31 07:50:02;;;;;;;5.97;2.03;;;;;;;7.03;76.59;101894.13;5013766;28;20084;-38
2023/03/31 07:52:28;;;;;;;7.22;2.40;;;;;;;6.74;79.02;101904.25;5006115;28;20497;-39
2023/03/31 07:54:55;;;;;;;9.30;2.10;;;;;;;6.94;78.06;101908.41;4993875;28;20033;-38
2023/03/31 07:57:21;;;;;;;6.53;2.20;;;;;;;6.99;77.40;101897.25;4996988;28;20072;-38
2023/03/31 07:59:47;;;;;;;8.68;2.10;;;;;;;6.47;80.07;101908.69;4993858;28;20398;-38
2023/03/31 08:02:15;;;;;;;8.18;2.20;;;;;;;6.54;79.77;101912.38;4993540;28;20121;-40
2023/03/31 08:04:43;;;;;;;8.02;2.58;;;;;;;6.08;82.57;101922.28;4993242;28;20475;-40
2023/03/31 08:07:11;;;;;;;7.40;2.50;;;;;;;6.05;83.30;101922.59;4999678;28;20038;-38
2023/03/31 08:09:39;;;;;;;7.82;2.70;;;;;;;6.21;83.08;101919.22;4993095;28;20475;-38
2023/03/31 08:12:06;;;;;;;16.50;3.17;;;;;;;6.12;82.70;101922.81;5000465;28;20129;-38
2023/03/31 08:14:32;;;;;;;9.48;2.92;;;;;;;5.96;84.10;101931.44;5003027;28;20125;-39
2023/03/31 08:17:02;;;;;;;10.65;2.97;;;;;;;6.16;83.19;101931.31;4999403;28;20309;-38
2023/03/31 08:19:28;;;;;;;8.23;2.70;;;;;;;6.21;82.67;101937.00;5013738;28;20030;-38
2023/03/31 08:21:55;;;;;;;11.07;3.08;;;;;;;5.89;84.48;101933.00;5013216;28;20132;-38
2023/03/31 08:24:21;;;;;;;8.73;2.95;;;;;;;6.20;83.09;101933.50;5013249;28;20077;-39
2023/03/31 08:26:47;;;;;;;10.07;3.33;;;;;;;6.34;82.24;101934.84;5006557;28;20029;-39
2023/03/31 08:29:14;;;;;;;12.98;3.25;;;;;;;6.34;81.87;101935.66;4993162;28;20422;-39
2023/03/31 08:31:40;;;;;;;8.05;3.15;;;;;;;6.15;82.88;101934.97;4994971;28;20479;-38
2023/03/31 08:34:07;;;;;;;9.13;2.40;;;;;;;5.85;84.84;101939.59;4992206;28;20042;-38
2023/03/31 08:36:33;;;;;;;7.53;2.50;;;;;;;6.11;83.48;101944.22;5006179;28;20041;-38
2023/03/31 08:39:00;;;;;;;7.35;2.45;;;;;;;6.31;82.22;101953.72;4994630;28;20078;-38
2023/03/31 08:41:47;;;;;;;14.68;3.72;;;;;;;6.09;84.59;101950.50;5003751;28;20398;-38
2023/03/31 08:44:25;;;;;;;12.80;3.38;;;;;;;6.19;83.35;101957.59;5013181;28;20225;-38
2023/03/31 08:46:56;;;;;;;10.85;2.78;;;;;;;6.13;84.61;101952.88;5012531;28;20448;-39
2023/03/31 08:49:23;;;;;;;7.05;2.45;;;;;;;6.16;84.42;101949.91;5009258;28;20026;-39
2023/03/31 08:51:55;;;;;;;7.10;2.70;;;;;;;6.24;83.66;101950.84;5004919;28;20398;-39
2023/03/31 08:54:24;;;;;;;9.30;2.72;;;;;;;6.26;83.20;101956.00;5012981;28;20056;-39
2023/03/31 08:56:51;;;;;;;14.90;2.60;;;;;;;6.47;81.91;101956.56;4999343;28;20030;-39
2023/03/31 08:59:32;;;;;;;12.88;2.90;;;;;;;6.12;82.68;101956.53;5001196;28;20332;-38
2023/03/31 09:02:01;;;;;;;12.88;2.80;;;;;;;6.21;82.55;101958.28;5010898;28;20371;-43
2023/03/31 09:04:27;;;;;;;6.07;2.67;;;;;;;6.34;81.91;101958.75;4992998;28;20034;-38
2023/03/31 09:07:02;;;;;;;6.30;2.15;;;;;;;6.38;81.42;101956.63;5004120;28;20103;-38
2023/03/31 09:09:37;;;;;;;12.10;2.95;;;;;;;6.23;81.60;101964.31;5012687;28;20058;-38
2023/03/31 09:12:44;;;;;;;8.73;2.72;;;;;;;5.61;84.58;101969.34;5012001;28;20034;-39
2023/03/31 09:15:18;;;;;;;8.45;2.38;;;;;;;5.80;84.35;101965.75;5004079;28;20137;-39
2023/03/31 09:17:48;;;;;;;7.65;2.67;;;;;;;5.77;85.13;101953.63;5009757;28;20034;-38
2023/03/31 09:20:31;;;;;;;11.25;2.70;;;;;;;5.93;84.34;101952.97;5012335;28;20504;-38
2023/03/31 09:23:08;;;;;;;10.82;2.40;;;;;;;6.00;83.85;101962.06;5011893;28;20034;-38
2023/03/31 09:25:40;;;;;;;8.15;2.33;;;;;;;6.11;83.12;101962.81;5012461;28;20117;-39
2023/03/31 09:28:17;;;;;;;8.05;2.85;;;;;;;6.08;83.79;101966.63;5011872;28;20068;-39
2023/03/31 09:30:48;;;;;;;10.43;3.28;;;;;;;6.13;83.46;101966.19;5012639;28;20087;-38
2023/03/31 09:33:19;;;;;;;6.43;2.60;;;;;;;6.11;83.35;101960.16;5011845;28;20018;-39
2023/03/31 09:35:45;;;;;;;7.20;2.40;;;;;;;6.27;82.76;101963.00;5012080;28;20370;-39
2023/03/31 09:38:13;;;;;;;10.52;2.75;;;;;;;6.24;82.68;101965.97;5011780;28;20025;-39
2023/03/31 09:40:41;;;;;;;9.48;3.00;;;;;;;5.98;83.98;101968.50;5011744;28;20125;-39
2023/03/31 09:43:29;;;;;;;11.45;2.83;;;;;;;5.75;84.13;101970.69;5011867;28;20025;-38
2023/03/31 09:45:56;;;;;;;8.95;2.53;;;;;;;5.69;85.19;101980.06;5011650;28;20014;-38
2023/03/31 09:48:26;;;;;;;5.70;2.13;;;;;;;5.86;83.88;101981.09;5011734;28;20486;-38
2023/03/31 09:51:01;;;;;;;7.88;2.22;;;;;;;6.02;83.03;101980.50;4995959;28;20298;-38
2023/03/31 09:53:37;;;;;;;8.82;2.53;;;;;;;5.77;83.54;101974.88;4992107;28;20097;-39
2023/03/31 09:56:10;;;;;;;6.05;2.33;;;;;;;5.54;84.72;101979.69;5003881;28;20038;-38
2023/03/31 09:58:47;;;;;;;11.07;2.90;;;;;;;5.55;85.01;101970.78;5011540;28;20053;-38
2023/03/31 10:01:14;;;;;;;9.10;2.60;;;;;;;5.73;83.78;101981.47;5011239;28;20030;-38
2023/03/31 10:03:59;;;;;;;5.47;2.10;;;;;;;5.87;82.97;101980.13;5011935;28;20061;-38
2023/03/31 10:06:25;;;;;;;9.05;2.45;;;;;;;5.98;82.54;101981.78;4993560;28;20032;-38
2023/03/31 10:09:12;;;;;;;8.07;2.58;;;;;;;5.59;83.91;101986.41;4991944;28;20427;-38
2023/03/31 10:11:39;;;;;;;10.98;3.13;;;;;;;5.74;83.29;101984.94;5006050;28;20023;-38
2023/03/31 10:14:15;;;;;;;7.25;2.92;;;;;;;5.84;82.79;101991.06;4992214;28;20545;-38
2023/03/31 10:16:50;;;;;;;5.90;2.50;;;;;;;5.84;82.63;101991.06;5009658;28;20041;-38
2023/03/31 10:19:23;;;;;;;7.27;2.90;;;;;;;5.79;82.62;102001.28;5011542;28;20385;-38
2023/03/31 10:22:01;;;;;;;7.20;2.67;;;;;;;5.94;82.40;101993.69;5011174;28;20351;-38
2023/03/31 10:24:39;;;;;;;6.30;2.33;;;;;;;5.92;82.06;101998.31;5001680;28;20489;-38
2023/03/31 10:27:20;;;;;;;9.82;2.70;;;;;;;5.96;81.87;101997.88;5010734;28;20061;-38
2023/03/31 10:29:50;;;;;;;7.50;2.05;;;;;;;5.97;81.69;102006.69;4996732;28;20065;-38
2023/03/31 10:32:19;;;;;;;8.50;2.80;;;;;;;5.93;81.63;102010.63;4996759;28;20038;-38
2023/03/31 10:34:45;;;;;;;5.60;2.40;;;;;;;6.00;81.14;102009.06;5004935;28;20048;-38
2023/03/31 10:37:21;;;;;;;15.00;3.33;;;;;;;5.65;82.76;102005.25;4992219;28;20113;-38
2023/03/31 10:39:47;;;;;;;;;;;;;;;5.68;82.97;102007.63;5004736;28;20558;-38
2023/03/31 10:42:24;;;;;;;5.28;2.50;;;;;;;5.78;83.32;102015.56;5011185;28;19988;-38
2023/03/31 10:45:12;;;;;;;10.43;2.38;;;;;;;5.78;83.50;102012.91;5010876;28;20096;-39
2023/03/31 10:47:40;;;;;;;7.65;2.50;;;;;;;5.94;83.13;102009.63;5009271;28;20473;-38
2023/03/31 10:50:14;;;;;;;6.03;2.40;;;;;;;5.92;82.79;102020.41;5011499;28;20037;-38
2023/03/31 10:52:46;;;;;;;7.68;2.55;;;;;;;5.87;82.93;102013.81;5010570;28;20074;-38
2023/03/31 10:55:20;;;;;;;6.60;2.50;;;;;;;5.95;82.52;102008.66;5011308;28;20026;-38
2023/03/31 10:58:04;;;;;;;10.43;2.83;;;;;;;5.93;83.12;102005.28;5012112;28;20184;-39
2023/03/31 11:00:35;;;;;;;10.73;2.33;;;;;;;6.03;82.26;102006.09;4994753;28;20050;-38
2023/03/31 11:03:23;;;;;;;6.25;2.22;;;;;;;6.07;82.47;102008.31;5001688;28;20029;-39
2023/03/31 11:05:53;;;;;;;7.68;2.60;;;;;;;5.96;83.70;102007.69;5009416;28;20022;-38
2023/03/31 11:08:38;;;;;;;10.50;2.75;;;;;;;6.00;83.39;102004.59;4994694;28;20034;-38
2023/03/31 11:11:27;;;;;;;8.63;2.50;;;;;;;6.11;83.25;102005.34;5003386;28;20121;-38
2023/03/31 11:14:14;;;;;;;11.63;3.05;;;;;;;6.09;83.52;102011.66;4996397;28;20136;-39
2023/03/31 11:16:58;;;;;;;9.18;2.78;;;;;;;6.00;83.43;102007.25;4996538;28;20381;-38
2023/03/31 11:20:04;;;;;;;9.40;3.30;;;;;;;5.79;84.44;102009.25;5006055;28;20030;-38
2023/03/31 11:22:42;;;;;;;8.20;2.58;;;;;;;5.80;83.42;102011.75;5008512;28;20026;-38
2023/03/31 11:25:36;;;;;;;9.95;3.13;;;;;;;5.90;83.45;102019.69;5005314;28;20487;-38
2023/03/31 11:28:23;;;;;;;6.30;2.45;;;;;;;5.92;83.19;102016.91;4994468;28;20061;-38
2023/03/31 11:30:50;;;;;;;8.32;2.47;;;;;;;5.98;83.11;102011.00;5000016;28;20057;-38
2023/03/31 11:33:33;;;;;;;9.38;3.10;;;;;;;5.98;83.19;102016.31;4994614;28;20105;-38
2023/03/31 11:36:00;;;;;;;11.73;2.42;;;;;;;6.06;83.13;102016.44;4994933;28;20105;-38
2023/03/31 11:38:43;;;;;;;10.68;2.28;;;;;;;6.04;82.61;102013.91;4994668;28;20018;-37
2023/03/31 11:41:30;;;;;;;19.40;3.13;;;;;;;5.51;85.82;102019.84;4994661;28;20034;-37
2023/03/31 11:44:04;;;;;;;9.35;2.90;;;;;;;5.73;84.81;102016.00;5011708;28;20018;-37
2023/03/31 11:46:58;;;;;;;7.72;2.80;;;;;;;5.61;85.64;102026.91;5014048;28;20030;-37
2023/03/31 11:49:55;;;;;;;7.50;2.30;;;;;;;5.80;84.56;102019.72;5013587;28;20064;-37
2023/03/31 11:52:38;;;;;;;10.85;2.65;;;;;;;5.55;85.88;102017.72;4986414;28;20103;-38